Time;durP1;ratioP1;P1;durP2;ratioP2;P2;SDS_P1;SDS_P2;PMS_P1;PMS_P2;Temp;Humidity;BMP_temperature;BMP_pressure;BME280_temperature;BME280_humidity;BME280_pressure;Samples;Min_cycle;Max_cycle;Signal;HPM_P1;HPM_P2
2021/12/18 00:02:20;;;;;;;0.10;0.10;;;6.90;99.90;;;;;;5071714;28;20179;-78
2021/12/18 00:04:47;;;;;;;0.10;0.10;;;6.70;99.90;;;;;;5071463;28;20128;-78
2021/12/18 00:07:14;;;;;;;0.10;0.10;;;6.70;99.90;;;;;;5071778;28;20044;-81
2021/12/18 00:09:41;;;;;;;0.10;0.10;;;6.70;99.90;;;;;;5087876;28;20407;-78
2021/12/18 00:12:09;;;;;;;0.10;0.10;;;6.60;99.90;;;;;;5071864;28;20044;-78
2021/12/18 00:14:36;;;;;;;0.10;0.10;;;6.60;99.90;;;;;;5088117;28;20041;-81
2021/12/18 00:17:03;;;;;;;0.10;0.10;;;6.60;99.90;;;;;;5055040;28;20596;-78
2021/12/18 00:19:30;;;;;;;0.10;0.10;;;6.60;99.90;;;;;;5087626;28;20098;-81
2021/12/18 00:21:57;;;;;;;0.00;0.00;;;6.60;99.90;;;;;;5054975;28;20045;-77
2021/12/18 00:24:24;;;;;;;0.10;0.10;;;6.60;99.90;;;;;;5071379;28;20045;-83
2021/12/18 00:26:51;;;;;;;0.10;0.10;;;6.60;99.90;;;;;;5087693;28;20128;-78
2021/12/18 00:29:18;;;;;;;0.10;0.10;;;6.60;99.90;;;;;;5070900;28;20482;-81
2021/12/18 00:31:45;;;;;;;0.10;0.10;;;6.70;99.90;;;;;;5087109;28;20076;-80
2021/12/18 00:34:11;;;;;;;0.10;0.10;;;6.70;99.90;;;;;;5070647;28;20044;-81
2021/12/18 00:36:38;;;;;;;0.10;0.10;;;6.60;99.90;;;;;;5087149;28;20103;-81
2021/12/18 00:39:06;;;;;;;0.05;0.05;;;6.60;99.90;;;;;;5054424;28;20131;-78
2021/12/18 00:44:04;;;;;;;0.10;0.10;;;6.60;99.90;;;;;;5070293;28;20412;-81
2021/12/18 00:46:37;;;;;;;0.00;0.00;;;6.70;99.90;;;;;;5054806;28;20095;-78
2021/12/18 00:49:05;;;;;;;0.10;0.10;;;6.70;99.90;;;;;;5086558;28;20040;-80
2021/12/18 00:51:33;;;;;;;0.10;0.10;;;6.70;99.90;;;;;;5087674;28;20119;-81
2021/12/18 00:54:00;;;;;;;0.10;0.10;;;7.30;99.90;;;;;;5054531;28;20071;-81
2021/12/18 00:56:26;;;;;;;0.10;0.10;;;6.70;99.90;;;;;;5054454;28;20036;-81
2021/12/18 00:58:53;;;;;;;0.10;0.10;;;6.70;99.90;;;;;;5070278;28;20048;-81
2021/12/18 01:01:22;;;;;;;0.10;0.10;;;6.60;99.90;;;;;;5086934;28;20090;-81
2021/12/18 01:03:51;;;;;;;0.08;0.08;;;6.60;99.90;;;;;;5070225;28;20052;-81
2021/12/18 01:06:20;;;;;;;0.00;0.00;;;6.60;99.90;;;;;;5087090;28;20040;-81
2021/12/18 01:08:52;;;;;;;0.10;0.10;;;6.60;99.90;;;;;;5070064;28;20402;-78
2021/12/18 01:11:33;;;;;;;0.10;0.10;;;6.60;99.90;;;;;;5087275;28;20037;-81
2021/12/18 01:14:40;;;;;;;0.20;0.20;;;6.50;99.90;;;;;;5086927;28;20045;-78
2021/12/18 01:24:59;;;;;;;0.00;0.00;;;6.50;99.90;;;;;;5072151;28;20080;-78
2021/12/18 01:27:25;;;;;;;0.10;0.10;;;6.50;99.90;;;;;;5086379;28;20079;-77
2021/12/18 01:29:52;;;;;;;0.10;0.10;;;6.50;99.90;;;;;;5052949;28;20133;-77
2021/12/18 01:32:19;;;;;;;0.10;0.10;;;6.40;99.90;;;;;;5086527;28;20075;-78
2021/12/18 01:34:46;;;;;;;0.10;0.10;;;6.90;99.90;;;;;;5053255;28;20507;-78
2021/12/18 01:37:13;;;;;;;0.08;0.08;;;6.50;99.90;;;;;;5086446;28;20040;-78
2021/12/18 01:39:40;;;;;;;0.10;0.10;;;6.50;99.90;;;;;;5085603;28;20048;-78
2021/12/18 01:45:35;;;;;;;0.10;0.10;;;6.50;99.90;;;;;;5069524;28;20087;-81
2021/12/18 01:52:53;;;;;;;0.00;0.00;;;6.50;99.90;;;;;;5085508;28;20048;-80
2021/12/18 01:55:29;;;;;;;0.10;0.10;;;6.60;99.90;;;;;;5053889;28;20033;-81
2021/12/18 01:57:56;;;;;;;0.10;0.10;;;6.50;99.90;;;;;;5085909;28;20127;-81
2021/12/18 02:00:36;;;;;;;0.10;0.10;;;6.50;99.90;;;;;;5091571;28;20132;-78
2021/12/18 02:03:04;;;;;;;0.00;0.00;;;6.50;99.90;;;;;;5105011;28;20595;-78
2021/12/18 02:05:31;;;;;;;0.10;0.10;;;6.50;99.90;;;;;;5089316;28;20040;-81
2021/12/18 02:07:59;;;;;;;0.10;0.10;;;6.50;99.90;;;;;;5088908;28;20045;-80
2021/12/18 02:10:29;;;;;;;0.10;0.10;;;6.50;99.90;;;;;;5106132;28;20076;-80
2021/12/18 02:13:04;;;;;;;0.08;0.08;;;6.50;99.90;;;;;;5106021;28;20042;-78
2021/12/18 02:21:13;;;;;;;0.10;0.10;;;6.50;99.90;;;;;;5091749;28;20044;-81
2021/12/18 02:23:41;;;;;;;0.10;0.10;;;6.40;99.90;;;;;;5089288;28;20313;-81
2021/12/18 02:26:08;;;;;;;0.10;0.10;;;6.40;99.90;;;;;;5089174;28;20040;-78
2021/12/18 02:28:36;;;;;;;0.10;0.10;;;6.50;99.90;;;;;;5089283;28;20079;-78
2021/12/18 02:31:03;;;;;;;0.10;0.10;;;6.40;99.90;;;;;;5072190;28;20401;-78
2021/12/18 02:33:30;;;;;;;0.10;0.10;;;6.50;99.90;;;;;;5089470;28;20126;-77
2021/12/18 02:35:59;;;;;;;0.10;0.10;;;6.50;99.90;;;;;;5071933;28;20548;-81
2021/12/18 02:44:09;;;;;;;0.00;0.00;;;6.40;99.90;;;;;;5091334;28;20086;-81
2021/12/18 02:46:37;;;;;;;0.10;0.10;;;6.40;99.90;;;;;;5105441;28;20125;-81
2021/12/18 02:49:16;;;;;;;0.10;0.10;;;6.50;99.90;;;;;;5088763;28;20427;-78
2021/12/18 02:51:43;;;;;;;0.10;0.10;;;6.40;99.90;;;;;;5089049;28;20045;-78
2021/12/18 02:54:10;;;;;;;0.10;0.10;;;6.40;99.90;;;;;;5071860;28;20078;-81
2021/12/18 02:56:37;;;;;;;0.10;0.10;;;6.40;99.90;;;;;;5088951;28;20135;-81
2021/12/18 02:59:08;;;;;;;0.10;0.10;;;7.00;99.90;;;;;;5088614;28;20152;-80
2021/12/18 03:01:37;;;;;;;0.10;0.10;;;6.40;99.90;;;;;;5088503;28;20528;-81
2021/12/18 03:04:14;;;;;;;0.10;0.10;;;6.40;99.90;;;;;;5088840;28;20041;-78
2021/12/18 03:06:46;;;;;;;0.10;0.10;;;6.40;99.90;;;;;;5074110;28;20072;-80
2021/12/18 03:25:27;;;;;;;0.10;0.10;;;6.40;99.90;;;;;;5109451;28;20045;-81
2021/12/18 03:27:54;;;;;;;0.08;0.08;;;6.40;99.90;;;;;;5076336;28;20083;-81
2021/12/18 03:30:21;;;;;;;0.10;0.10;;;6.40;99.90;;;;;;5076064;28;20103;-78
2021/12/18 03:32:48;;;;;;;0.00;0.00;;;6.40;99.90;;;;;;5109510;28;20070;-78
2021/12/18 03:35:16;;;;;;;0.00;0.00;;;6.40;99.90;;;;;;5075779;28;20059;-81
2021/12/18 03:37:43;;;;;;;0.10;0.10;;;6.60;99.90;;;;;;5108928;28;20036;-77
2021/12/18 03:40:13;;;;;;;0.10;0.10;;;6.40;99.90;;;;;;5075396;28;20043;-78
2021/12/18 03:42:41;;;;;;;0.10;0.10;;;6.40;99.90;;;;;;5075760;28;20400;-81
2021/12/18 03:45:09;;;;;;;0.10;0.10;;;6.40;99.90;;;;;;5108421;28;20051;-81
2021/12/18 03:47:36;;;;;;;0.10;0.10;;;6.40;99.90;;;;;;5092331;28;20133;-81
2021/12/18 03:50:04;;;;;;;0.10;0.10;;;6.40;99.90;;;;;;5091709;28;20037;-81
2021/12/18 03:52:30;;;;;;;0.10;0.10;;;6.40;99.90;;;;;;5092476;28;20040;-81
2021/12/18 03:54:59;;;;;;;0.08;0.08;;;6.50;99.90;;;;;;5075413;28;20089;-77
2021/12/18 03:57:26;;;;;;;0.10;0.10;;;6.40;99.90;;;;;;5092120;28;20044;-78
2021/12/18 03:59:53;;;;;;;0.10;0.10;;;6.40;99.90;;;;;;5075496;28;20162;-81
2021/12/18 04:02:20;;;;;;;0.10;0.10;;;6.30;99.90;;;;;;5074909;28;20088;-82
2021/12/18 04:04:46;;;;;;;0.00;0.00;;;6.30;99.90;;;;;;5074775;28;20484;-81
2021/12/18 04:07:14;;;;;;;0.10;0.10;;;6.90;99.90;;;;;;5091287;28;20045;-82
2021/12/18 04:09:41;;;;;;;5.75;0.57;;;6.30;99.90;;;;;;5091921;28;20040;-78
2021/12/18 04:12:08;;;;;;;0.10;0.10;;;6.30;99.90;;;;;;5075182;28;20159;-78
2021/12/18 04:14:35;;;;;;;0.10;0.10;;;6.30;99.90;;;;;;5091917;28;20043;-78
2021/12/18 04:17:03;;;;;;;0.10;0.10;;;6.40;99.90;;;;;;5074829;28;20497;-81
2021/12/18 04:19:30;;;;;;;0.00;0.00;;;6.30;99.90;;;;;;5092036;28;20055;-81
2021/12/18 04:21:56;;;;;;;0.10;0.10;;;6.30;99.90;;;;;;5074377;28;20044;-81
2021/12/18 04:24:23;;;;;;;0.10;0.10;;;6.30;99.90;;;;;;5090900;28;20416;-77
2021/12/18 04:26:50;;;;;;;0.00;0.00;;;6.30;99.90;;;;;;5091526;28;20036;-77
2021/12/18 04:29:17;;;;;;;0.10;0.10;;;6.30;99.90;;;;;;5074720;28;20040;-80
2021/12/18 04:31:44;;;;;;;0.03;0.03;;;6.40;99.90;;;;;;5074897;28;20044;-78
2021/12/18 04:34:10;;;;;;;0.10;0.10;;;6.40;99.90;;;;;;5074366;28;20047;-78
2021/12/18 04:36:37;;;;;;;0.10;0.10;;;6.40;99.90;;;;;;5074728;28;20040;-81
2021/12/18 04:39:04;;;;;;;0.00;0.00;;;6.40;99.90;;;;;;5090957;28;20127;-81
2021/12/18 04:41:49;;;;;;;0.00;0.00;;;6.30;99.90;;;;;;5107909;28;20493;-77
2021/12/18 04:44:17;;;;;;;0.10;0.10;;;6.50;99.90;;;;;;5076767;28;20045;-77
2021/12/18 04:46:44;;;;;;;0.10;0.10;;;6.40;99.90;;;;;;5091245;28;20094;-78
2021/12/18 04:49:10;;;;;;;0.10;0.10;;;6.40;99.90;;;;;;5074244;28;20078;-78
2021/12/18 04:51:37;;;;;;;0.00;0.00;;;6.40;99.90;;;;;;5074447;28;20040;-78
2021/12/18 04:54:04;;;;;;;0.10;0.10;;;6.40;99.90;;;;;;5074169;28;20067;-78
2021/12/18 04:56:31;;;;;;;0.10;0.10;;;6.40;99.90;;;;;;5107940;28;20079;-81
2021/12/18 04:58:58;;;;;;;0.10;0.10;;;6.40;99.90;;;;;;5107558;28;20040;-81
2021/12/18 05:01:25;;;;;;;0.00;0.00;;;6.40;99.90;;;;;;5090197;28;20497;-81
2021/12/18 05:03:52;;;;;;;0.10;0.10;;;6.50;99.90;;;;;;5090642;28;20128;-78
2021/12/18 05:06:18;;;;;;;0.00;0.00;;;6.60;99.90;;;;;;5090273;28;20098;-78
2021/12/18 05:08:45;;;;;;;0.10;0.10;;;6.50;99.90;;;;;;5090891;28;20036;-80
2021/12/18 05:11:12;;;;;;;0.10;0.10;;;6.50;99.90;;;;;;5073578;28;20397;-81
2021/12/18 05:13:39;;;;;;;0.10;0.10;;;6.50;99.90;;;;;;5090380;28;20042;-77
2021/12/18 05:16:05;;;;;;;0.00;0.00;;;6.60;99.90;;;;;;5073712;28;20137;-80
2021/12/18 05:18:32;;;;;;;0.10;0.10;;;6.50;99.90;;;;;;5074029;28;20048;-81
2021/12/18 05:20:59;;;;;;;0.00;0.00;;;7.20;99.90;;;;;;5054475;28;20041;-81
2021/12/18 05:23:25;;;;;;;0.10;0.10;;;6.50;99.90;;;;;;5080355;28;20067;-80
2021/12/18 05:25:52;;;;;;;0.03;0.03;;;7.00;99.90;;;;;;5104386;28;20044;-77
2021/12/18 05:28:19;;;;;;;0.10;0.10;;;6.50;99.90;;;;;;5066043;28;20029;-78
2021/12/18 05:30:46;;;;;;;0.10;0.10;;;6.50;99.90;;;;;;5087169;28;20063;-77
2021/12/18 05:33:12;;;;;;;0.10;0.10;;;6.50;99.90;;;;;;5069370;28;20059;-81
2021/12/18 05:35:39;;;;;;;0.10;0.10;;;6.50;99.90;;;;;;5070104;28;20036;-80
2021/12/18 05:38:06;;;;;;;0.00;0.00;;;6.60;99.90;;;;;;5070100;28;20068;-77
2021/12/18 05:40:35;;;;;;;0.10;0.10;;;6.60;99.90;;;;;;5053561;28;20083;-81
2021/12/18 05:43:02;;;;;;;0.10;0.10;;;6.60;99.90;;;;;;5053620;28;20041;-77
2021/12/18 05:45:29;;;;;;;0.10;0.10;;;6.70;99.90;;;;;;5086216;28;20094;-77
2021/12/18 05:47:56;;;;;;;0.00;0.00;;;6.60;99.90;;;;;;5086293;28;20489;-77
2021/12/18 05:50:27;;;;;;;0.10;0.10;;;6.60;99.90;;;;;;5069676;28;20043;-77
2021/12/18 05:52:55;;;;;;;0.00;0.00;;;6.60;99.90;;;;;;5054100;28;20037;-81
2021/12/18 05:55:25;;;;;;;0.08;0.08;;;6.60;99.90;;;;;;5069975;28;20053;-81
2021/12/18 05:57:52;;;;;;;0.10;0.10;;;6.80;99.90;;;;;;5070089;28;20037;-81
2021/12/18 06:00:20;;;;;;;0.05;0.05;;;6.70;99.90;;;;;;5085624;28;20560;-81
2021/12/18 06:02:47;;;;;;;0.08;0.08;;;6.70;99.90;;;;;;5069539;28;20489;-81
2021/12/18 06:05:14;;;;;;;0.10;0.10;;;6.70;99.90;;;;;;5085780;28;20048;-77
2021/12/18 06:10:10;;;;;;;0.10;0.10;;;6.70;99.90;;;;;;5069906;28;20393;-80
2021/12/18 06:12:37;;;;;;;0.10;0.10;;;6.80;99.90;;;;;;5069675;28;20033;-80
2021/12/18 06:15:04;;;;;;;0.10;0.10;;;6.70;99.90;;;;;;5086196;28;20536;-78
2021/12/18 06:17:31;;;;;;;0.08;0.08;;;6.80;99.90;;;;;;5083028;28;20076;-77
2021/12/18 06:19:58;;;;;;;0.00;0.00;;;6.80;99.90;;;;;;5085688;28;20122;-77
2021/12/18 06:22:24;;;;;;;0.10;0.10;;;6.80;99.90;;;;;;5083695;28;20036;-81
2021/12/18 06:24:51;;;;;;;0.00;0.00;;;6.80;99.90;;;;;;5062492;28;20044;-81
2021/12/18 06:27:18;;;;;;;0.03;0.03;;;6.80;99.90;;;;;;5078840;28;20070;-81
2021/12/18 06:29:46;;;;;;;0.10;0.10;;;6.80;99.90;;;;;;5063169;28;20033;-78
2021/12/18 06:32:13;;;;;;;0.00;0.00;;;6.80;99.90;;;;;;5074456;28;20549;-81
2021/12/18 06:34:39;;;;;;;0.00;0.00;;;6.80;99.90;;;;;;5093818;28;20132;-78
2021/12/18 06:37:06;;;;;;;0.10;0.10;;;6.90;99.90;;;;;;5075685;28;20041;-77
2021/12/18 06:39:33;;;;;;;0.10;0.10;;;7.00;99.90;;;;;;5064043;28;20048;-78
2021/12/18 06:42:00;;;;;;;0.10;0.10;;;6.90;99.90;;;;;;5057645;28;20041;-78
2021/12/18 06:44:28;;;;;;;0.10;0.10;;;6.90;99.90;;;;;;5060030;28;20041;-78
2021/12/18 06:46:56;;;;;;;0.05;0.05;;;6.80;99.90;;;;;;5061086;28;20039;-78
2021/12/18 06:49:23;;;;;;;0.10;0.10;;;6.90;99.90;;;;;;5073672;28;20040;-82
2021/12/18 06:51:49;;;;;;;0.10;0.10;;;6.90;99.90;;;;;;5093089;28;20040;-82
2021/12/18 06:54:16;;;;;;;0.10;0.10;;;6.90;99.90;;;;;;5076700;28;20028;-79
2021/12/18 06:56:43;;;;;;;0.10;0.10;;;6.90;99.90;;;;;;5076642;28;20775;-78
2021/12/18 06:59:09;;;;;;;0.10;0.10;;;6.90;99.90;;;;;;5093088;28;20048;-81
2021/12/18 07:01:36;;;;;;;0.00;0.00;;;6.90;99.90;;;;;;5076004;28;20064;-81
2021/12/18 07:04:03;;;;;;;0.10;0.10;;;7.00;99.90;;;;;;5093102;28;20055;-78
2021/12/18 07:06:30;;;;;;;0.03;0.03;;;6.90;99.90;;;;;;5076187;28;20082;-78
2021/12/18 07:08:57;;;;;;;0.00;0.00;;;7.00;99.90;;;;;;5076306;28;20520;-78
2021/12/18 07:11:24;;;;;;;0.10;0.10;;;7.00;99.90;;;;;;5093020;28;20066;-82
2021/12/18 07:13:50;;;;;;;0.00;0.00;;;7.00;99.90;;;;;;5076036;28;20040;-78
2021/12/18 07:16:17;;;;;;;0.10;0.10;;;7.00;99.90;;;;;;5076270;28;20055;-78
2021/12/18 07:18:44;;;;;;;0.03;0.03;;;7.00;99.90;;;;;;5089100;28;20032;-79
2021/12/18 07:21:11;;;;;;;0.00;0.00;;;7.00;99.90;;;;;;5076100;28;20041;-82
2021/12/18 07:23:38;;;;;;;0.03;0.03;;;7.10;99.90;;;;;;5051458;28;20076;-78
2021/12/18 07:26:04;;;;;;;0.00;0.00;;;7.00;99.90;;;;;;5062265;28;20048;-78
2021/12/18 07:28:31;;;;;;;0.00;0.00;;;7.10;99.90;;;;;;5081720;28;20037;-81
2021/12/18 07:30:58;;;;;;;0.00;0.00;;;7.30;99.90;;;;;;5075069;28;20151;-82
2021/12/18 07:33:25;;;;;;;0.10;0.10;;;7.20;99.90;;;;;;5082883;28;20032;-82
2021/12/18 07:35:51;;;;;;;0.10;0.10;;;7.10;99.90;;;;;;5100379;28;20087;-78
2021/12/18 07:38:18;;;;;;;0.10;0.10;;;7.10;99.90;;;;;;5083823;28;20124;-79
2021/12/18 07:40:45;;;;;;;0.00;0.00;;;7.10;99.90;;;;;;5083083;28;20397;-82
2021/12/18 07:43:12;;;;;;;0.00;0.00;;;7.20;99.90;;;;;;5074837;28;20040;-82
2021/12/18 07:45:39;;;;;;;0.00;0.00;;;7.20;99.90;;;;;;5084376;28;20090;-81
2021/12/18 07:48:06;;;;;;;0.10;0.10;;;7.20;99.90;;;;;;5063054;28;20037;-78
2021/12/18 07:50:33;;;;;;;0.03;0.03;;;7.20;99.90;;;;;;5056271;28;20045;-83
2021/12/18 07:53:00;;;;;;;0.10;0.10;;;7.20;99.90;;;;;;5083606;28;20041;-78
2021/12/18 07:55:28;;;;;;;0.05;0.05;;;7.20;99.90;;;;;;5067627;28;20069;-78
2021/12/18 07:57:55;;;;;;;0.10;0.10;;;7.30;99.90;;;;;;5108030;28;20566;-82
2021/12/18 08:00:24;;;;;;;0.03;0.03;;;7.30;99.90;;;;;;5092097;28;20114;-80
2021/12/18 08:02:51;;;;;;;0.00;0.00;;;7.30;99.90;;;;;;5074641;28;20067;-80
2021/12/18 08:05:17;;;;;;;0.00;0.00;;;7.30;99.90;;;;;;5074829;28;20044;-80
2021/12/18 08:07:44;;;;;;;0.00;0.00;;;7.30;99.90;;;;;;5108199;28;20852;-81
2021/12/18 08:10:11;;;;;;;0.10;0.10;;;7.30;99.90;;;;;;5074824;28;20068;-80
2021/12/18 08:12:38;;;;;;;0.10;0.10;;;7.30;99.90;;;;;;5091591;28;20079;-82
2021/12/18 08:15:07;;;;;;;0.00;0.00;;;7.30;99.90;;;;;;5091779;28;20540;-82
2021/12/18 08:17:36;;;;;;;0.00;0.00;;;7.30;99.90;;;;;;5080156;28;20033;-80
2021/12/18 08:20:05;;;;;;;0.08;0.08;;;7.40;99.90;;;;;;5072085;28;20063;-81
2021/12/18 08:22:31;;;;;;;0.00;0.00;;;7.40;99.90;;;;;;5071050;28;20409;-81
2021/12/18 08:24:58;;;;;;;0.10;0.10;;;7.40;99.90;;;;;;5088825;28;20056;-80
2021/12/18 08:27:25;;;;;;;0.00;0.00;;;7.40;99.90;;;;;;5069403;28;20494;-81
2021/12/18 08:29:52;;;;;;;0.10;0.10;;;7.40;99.90;;;;;;5057933;28;20442;-82
2021/12/18 08:32:19;;;;;;;0.05;0.05;;;7.50;99.90;;;;;;5071335;28;20552;-81
2021/12/18 08:34:46;;;;;;;0.00;0.00;;;7.40;99.90;;;;;;5070412;28;20576;-80
2021/12/18 08:37:13;;;;;;;0.08;0.08;;;7.40;99.90;;;;;;5071063;28;20049;-80
2021/12/18 08:39:39;;;;;;;0.00;0.00;;;7.50;99.90;;;;;;5087531;28;20064;-81
2021/12/18 08:42:06;;;;;;;0.10;0.10;;;7.50;99.90;;;;;;5087947;28;20045;-81
2021/12/18 08:44:34;;;;;;;0.00;0.00;;;7.50;99.90;;;;;;5070647;28;20574;-80
2021/12/18 08:47:01;;;;;;;0.08;0.08;;;7.50;99.90;;;;;;5087888;28;20033;-81
2021/12/18 08:49:28;;;;;;;0.00;0.00;;;7.60;99.90;;;;;;5087509;28;20036;-80
2021/12/18 08:51:55;;;;;;;0.00;0.00;;;7.50;99.90;;;;;;5070741;28;20044;-80
2021/12/18 08:54:24;;;;;;;0.00;0.00;;;7.60;99.90;;;;;;5087488;28;20041;-81
2021/12/18 08:56:51;;;;;;;0.00;0.00;;;7.60;99.90;;;;;;5087130;28;20422;-80
2021/12/18 08:59:18;;;;;;;0.00;0.00;;;7.60;99.90;;;;;;5087282;28;20138;-81
2021/12/18 09:01:44;;;;;;;0.10;0.10;;;7.60;99.90;;;;;;5070359;28;20060;-80
2021/12/18 09:04:11;;;;;;;0.00;0.00;;;7.60;99.90;;;;;;5087191;28;20040;-80
2021/12/18 09:06:38;;;;;;;0.00;0.00;;;7.60;99.90;;;;;;5070124;28;20127;-81
2021/12/18 09:09:06;;;;;;;0.10;0.10;;;7.60;99.90;;;;;;5087106;28;20071;-81
2021/12/18 09:11:33;;;;;;;0.03;0.03;;;7.70;99.90;;;;;;5070669;28;20406;-81
2021/12/18 09:14:02;;;;;;;0.00;0.00;;;7.70;99.90;;;;;;5070604;28;20072;-81
2021/12/18 09:16:30;;;;;;;0.00;0.00;;;7.70;99.90;;;;;;5054186;28;20044;-80
2021/12/18 09:18:58;;;;;;;0.10;0.10;;;7.80;99.90;;;;;;5053600;28;20060;-80
2021/12/18 09:21:24;;;;;;;0.10;0.10;;;7.80;99.90;;;;;;5070518;28;20044;-80
2021/12/18 09:23:51;;;;;;;0.00;0.00;;;7.80;99.90;;;;;;5069719;28;20098;-81
2021/12/18 09:26:18;;;;;;;0.00;0.00;;;7.80;99.90;;;;;;5086959;28;20041;-82
2021/12/18 09:28:44;;;;;;;0.00;0.00;;;7.80;99.90;;;;;;5053388;28;20037;-81
2021/12/18 09:31:11;;;;;;;0.00;0.00;;;7.80;99.90;;;;;;5086775;28;20432;-81
2021/12/18 09:33:38;;;;;;;0.10;0.10;;;7.80;99.90;;;;;;5069544;28;20456;-81
2021/12/18 09:36:05;;;;;;;0.00;0.00;;;7.80;99.90;;;;;;5069891;28;20044;-81
2021/12/18 09:38:31;;;;;;;0.00;0.00;;;7.80;99.90;;;;;;5070232;28;20041;-81
2021/12/18 09:41:00;;;;;;;0.00;0.00;;;7.80;99.90;;;;;;5069919;28;20049;-80
2021/12/18 09:43:26;;;;;;;0.00;0.00;;;7.80;99.90;;;;;;5086262;28;20048;-81
2021/12/18 09:45:53;;;;;;;0.00;0.00;;;7.80;99.90;;;;;;5086317;28;20033;-81
2021/12/18 09:48:22;;;;;;;0.00;0.00;;;7.90;99.90;;;;;;5086425;28;20505;-81
2021/12/18 09:50:55;;;;;;;0.10;0.10;;;7.90;99.90;;;;;;5086148;28;20142;-80
2021/12/18 09:53:22;;;;;;;0.10;0.10;;;7.90;99.90;;;;;;5054413;28;20037;-80
2021/12/18 09:55:49;;;;;;;0.13;0.10;;;7.90;99.90;;;;;;5052769;28;20041;-80
2021/12/18 09:58:16;;;;;;;0.00;0.00;;;8.00;99.90;;;;;;5086196;28;20048;-80
2021/12/18 10:00:43;;;;;;;0.00;0.00;;;7.90;99.90;;;;;;5068694;28;20040;-81
2021/12/18 10:03:09;;;;;;;0.00;0.00;;;8.00;99.90;;;;;;5069929;28;20052;-80
2021/12/18 10:05:38;;;;;;;0.03;0.03;;;8.00;99.90;;;;;;5053029;28;20037;-80
2021/12/18 10:08:17;;;;;;;0.00;0.00;;;8.50;99.90;;;;;;5053509;28;20083;-81
2021/12/18 10:11:07;;;;;;;0.00;0.00;;;8.00;99.90;;;;;;5085602;28;20044;-80
2021/12/18 10:13:52;;;;;;;0.00;0.00;;;8.00;99.90;;;;;;5086045;28;20079;-81
2021/12/18 10:16:20;;;;;;;0.00;0.00;;;8.10;99.90;;;;;;5086309;28;20045;-80
2021/12/18 10:18:46;;;;;;;0.00;0.00;;;8.10;99.90;;;;;;5069241;28;20070;-81
2021/12/18 10:21:19;;;;;;;0.00;0.00;;;8.10;99.90;;;;;;5085215;28;20127;-80
2021/12/18 10:23:48;;;;;;;0.00;0.00;;;8.10;99.90;;;;;;5085425;28;20098;-79
2021/12/18 10:26:35;;;;;;;0.00;0.00;;;8.10;99.90;;;;;;5086015;28;20037;-80
2021/12/18 10:29:04;;;;;;;0.00;0.00;;;8.10;99.90;;;;;;5085305;28;20485;-80
2021/12/18 10:31:45;;;;;;;0.10;0.10;;;8.20;99.90;;;;;;5085625;28;20066;-81
2021/12/18 10:34:17;;;;;;;0.00;0.00;;;8.20;99.90;;;;;;5069061;28;20186;-81
2021/12/18 10:37:06;;;;;;;0.00;0.00;;;8.20;99.90;;;;;;5085780;28;20076;-81
2021/12/18 10:39:35;;;;;;;0.00;0.00;;;8.20;99.90;;;;;;5085567;28;20037;-80
2021/12/18 10:42:25;;;;;;;0.00;0.00;;;8.20;99.90;;;;;;5085458;28;20044;-80
2021/12/18 10:45:03;;;;;;;0.10;0.10;;;8.20;99.90;;;;;;5088054;28;20041;-80
2021/12/18 10:48:03;;;;;;;0.00;0.00;;;8.20;99.90;;;;;;5085555;28;20091;-81
2021/12/18 10:50:49;;;;;;;0.10;0.10;;;8.30;99.90;;;;;;5085667;28;20136;-79
2021/12/18 10:53:17;;;;;;;0.10;0.10;;;8.30;99.90;;;;;;5085482;28;20068;-80
2021/12/18 10:55:58;;;;;;;0.00;0.00;;;8.30;99.90;;;;;;5085492;28;20482;-80
2021/12/18 10:58:26;;;;;;;0.00;0.00;;;8.30;99.90;;;;;;5069079;28;20120;-81
2021/12/18 11:00:57;;;;;;;0.00;0.00;;;8.30;99.90;;;;;;5085386;28;20063;-80
2021/12/18 11:03:41;;;;;;;0.10;0.10;;;8.30;99.90;;;;;;5085344;28;20071;-80
2021/12/18 11:06:14;;;;;;;0.00;0.00;;;8.30;99.90;;;;;;5085594;28;20044;-81
2021/12/18 11:09:04;;;;;;;0.00;0.00;;;8.40;99.90;;;;;;5085906;28;20049;-81
2021/12/18 11:14:33;;;;;;;0.00;0.00;;;8.40;99.90;;;;;;5085806;28;20056;-81
2021/12/18 11:17:05;;;;;;;0.00;0.00;;;8.30;99.90;;;;;;5085312;28;20075;-79
2021/12/18 11:19:34;;;;;;;0.00;0.00;;;8.40;99.90;;;;;;5068862;28;20123;-80
2021/12/18 11:22:07;;;;;;;0.03;0.03;;;8.40;99.90;;;;;;5052044;28;20060;-80
2021/12/18 11:24:42;;;;;;;0.00;0.00;;;8.40;99.90;;;;;;5085116;28;20045;-80
2021/12/18 11:27:10;;;;;;;0.00;0.00;;;8.50;99.90;;;;;;5068626;28;20045;-80
2021/12/18 11:30:08;;;;;;;0.00;0.00;;;8.40;99.90;;;;;;5085158;28;20037;-80
2021/12/18 11:32:43;;;;;;;0.05;0.05;;;8.40;99.90;;;;;;5057868;28;20128;-81
2021/12/18 11:35:13;;;;;;;0.00;0.00;;;8.50;99.90;;;;;;5055914;28;20045;-80
2021/12/18 11:37:44;;;;;;;0.00;0.00;;;8.50;99.90;;;;;;5088795;28;20094;-80
2021/12/18 11:40:16;;;;;;;0.10;0.10;;;8.50;99.90;;;;;;5089184;28;20045;-81
2021/12/18 11:42:43;;;;;;;0.00;0.00;;;8.50;99.90;;;;;;5088725;28;20045;-80
2021/12/18 11:45:10;;;;;;;0.05;0.05;;;8.50;99.90;;;;;;5088191;28;20080;-81
2021/12/18 11:47:39;;;;;;;0.00;0.00;;;8.50;99.90;;;;;;5071968;28;20127;-80
2021/12/18 11:50:24;;;;;;;0.10;0.10;;;8.50;99.90;;;;;;5088430;28;20044;-80
2021/12/18 11:53:03;;;;;;;0.00;0.00;;;8.60;99.90;;;;;;5088668;28;20504;-80
2021/12/18 11:55:57;;;;;;;0.00;0.00;;;8.60;99.90;;;;;;5088357;28;20291;-80
2021/12/18 11:58:30;;;;;;;0.00;0.00;;;8.60;99.90;;;;;;5068121;28;20053;-80
2021/12/18 12:01:16;;;;;;;0.00;0.00;;;8.70;99.90;;;;;;5088115;28;20481;-80
2021/12/18 12:03:51;;;;;;;0.00;0.00;;;8.60;99.90;;;;;;5088282;28;20536;-80
2021/12/18 12:06:24;;;;;;;0.10;0.10;;;8.60;99.90;;;;;;5088744;28;20478;-80
2021/12/18 12:09:14;;;;;;;0.00;0.00;;;8.60;99.90;;;;;;5088753;28;20037;-81
2021/12/18 12:11:54;;;;;;;0.00;0.00;;;8.60;99.90;;;;;;5088403;28;20037;-79
2021/12/18 12:14:23;;;;;;;0.00;0.00;;;8.60;99.90;;;;;;5088382;28;20041;-80
2021/12/18 12:16:50;;;;;;;0.00;0.00;;;8.60;99.90;;;;;;5071419;28;20051;-80
2021/12/18 12:19:24;;;;;;;0.03;0.03;;;8.60;99.90;;;;;;5087718;28;20049;-80
2021/12/18 12:21:54;;;;;;;0.00;0.00;;;8.60;99.90;;;;;;5088015;28;20036;-80
2021/12/18 12:24:30;;;;;;;0.00;0.00;;;8.60;99.90;;;;;;5087928;28;20127;-81
2021/12/18 12:27:27;;;;;;;0.00;0.00;;;8.60;99.90;;;;;;5087769;28;20477;-81
2021/12/18 12:29:55;;;;;;;0.00;0.00;;;8.60;99.90;;;;;;5044950;28;20110;-80
2021/12/18 12:32:22;;;;;;;0.00;0.00;;;8.80;99.90;;;;;;5071466;28;20040;-81
2021/12/18 12:35:12;;;;;;;0.00;0.00;;;8.70;99.90;;;;;;5070971;28;20049;-79
2021/12/18 12:37:46;;;;;;;0.00;0.00;;;8.70;99.90;;;;;;5087801;28;20843;-79
2021/12/18 12:40:16;;;;;;;0.10;0.10;;;8.70;99.90;;;;;;5070740;28;20123;-81
2021/12/18 12:43:14;;;;;;;0.00;0.00;;;8.70;99.90;;;;;;5087264;28;20097;-80
2021/12/18 12:45:44;;;;;;;0.00;0.00;;;8.70;99.90;;;;;;5087689;28;20416;-80
2021/12/18 12:48:11;;;;;;;0.00;0.00;;;8.70;99.90;;;;;;5087299;28;20124;-80
2021/12/18 12:50:39;;;;;;;0.00;0.00;;;8.60;99.90;;;;;;5087714;28;20151;-80
2021/12/18 12:53:08;;;;;;;0.00;0.00;;;8.70;99.90;;;;;;5070525;28;20658;-80
2021/12/18 12:55:49;;;;;;;0.08;0.08;;;8.70;99.90;;;;;;5087504;28;20561;-81
2021/12/18 12:58:25;;;;;;;0.05;0.05;;;8.70;99.90;;;;;;5087079;28;20044;-81
2021/12/18 13:00:58;;;;;;;0.00;0.00;;;8.70;99.90;;;;;;5087357;28;20091;-80
2021/12/18 13:03:31;;;;;;;0.00;0.00;;;8.70;99.90;;;;;;5087347;28;20082;-79
2021/12/18 13:06:05;;;;;;;0.00;0.00;;;8.70;99.90;;;;;;5087267;28;20048;-79
2021/12/18 13:08:36;;;;;;;0.00;0.00;;;8.70;99.90;;;;;;5087451;28;20041;-80
2021/12/18 13:11:04;;;;;;;0.00;0.00;;;8.70;99.90;;;;;;5086692;28;20029;-81
2021/12/18 13:13:34;;;;;;;0.00;0.00;;;8.70;99.90;;;;;;5070744;28;20045;-81
2021/12/18 13:16:09;;;;;;;0.00;0.00;;;8.70;99.90;;;;;;5086769;28;20124;-80
2021/12/18 13:18:58;;;;;;;0.10;0.10;;;8.60;99.90;;;;;;5087144;28;20033;-81
2021/12/18 13:21:32;;;;;;;0.10;0.10;;;8.60;99.90;;;;;;5087307;28;20079;-80
2021/12/18 13:24:01;;;;;;;0.00;0.00;;;8.60;99.90;;;;;;5087141;28;20048;-80
2021/12/18 13:26:39;;;;;;;0.00;0.00;;;8.60;99.90;;;;;;5054414;28;20080;-81
2021/12/18 13:29:21;;;;;;;0.03;0.03;;;8.60;99.90;;;;;;5069740;28;20036;-79
2021/12/18 13:31:50;;;;;;;0.00;0.00;;;8.60;99.90;;;;;;5070006;28;20041;-80
2021/12/18 13:34:20;;;;;;;0.00;0.00;;;8.60;99.90;;;;;;5086121;28;20048;-81
2021/12/18 13:36:56;;;;;;;0.00;0.00;;;8.60;99.90;;;;;;5070155;28;20094;-80
2021/12/18 13:39:30;;;;;;;0.10;0.10;;;8.60;99.90;;;;;;5086393;28;20053;-80
2021/12/18 13:42:17;;;;;;;0.00;0.00;;;8.60;99.90;;;;;;5086398;28;20111;-80
2021/12/18 13:44:53;;;;;;;0.00;0.00;;;8.60;99.90;;;;;;5086410;28;20047;-81
2021/12/18 13:47:25;;;;;;;0.20;0.20;;;8.60;99.90;;;;;;5069574;28;20466;-80
2021/12/18 13:50:16;;;;;;;0.00;0.00;;;8.60;99.90;;;;;;5086341;28;20486;-80
2021/12/18 13:52:58;;;;;;;0.00;0.00;;;8.60;99.90;;;;;;5086525;28;20127;-81
2021/12/18 13:55:47;;;;;;;0.00;0.00;;;8.60;99.90;;;;;;5085574;28;20493;-81
2021/12/18 13:58:19;;;;;;;0.10;0.10;;;8.60;99.90;;;;;;5085725;28;20051;-81
2021/12/18 14:00:50;;;;;;;0.00;0.00;;;8.60;99.90;;;;;;5086113;28;20052;-81
2021/12/18 14:03:29;;;;;;;0.00;0.00;;;8.60;99.90;;;;;;5085911;28;20040;-80
2021/12/18 14:06:07;;;;;;;0.00;0.00;;;8.60;99.90;;;;;;5086330;28;20049;-81